Time;durP1;ratioP1;P1;durP2;ratioP2;P2;SDS_P1;SDS_P2;PMS_P1;PMS_P2;Temp;Humidity;BMP_temperature;BMP_pressure;BME280_temperature;BME280_humidity;BME280_pressure;Samples;Min_cycle;Max_cycle;Signal;HPM_P1;HPM_P2
2022/08/11 00:00:07;;;;;;;1.88;0.90;;;;;;;20.66;44.28;99350.38;5033363;28;20081;-60
2022/08/11 00:03:08;;;;;;;1.40;0.82;;;;;;;20.65;44.77;99340.72;5033244;28;20052;-60
2022/08/11 00:05:55;;;;;;;2.60;1.00;;;;;;;20.55;44.88;99356.78;5032616;28;20042;-62
2022/08/11 00:08:43;;;;;;;1.35;0.80;;;;;;;20.51;45.82;99358.09;5050024;28;20043;-61
2022/08/11 00:11:33;;;;;;;2.05;1.15;;;;;;;20.47;44.73;99356.72;5039704;28;20472;-61
2022/08/11 00:14:24;;;;;;;1.70;1.00;;;;;;;20.47;44.72;99358.56;5042990;28;20067;-61
2022/08/11 00:17:11;;;;;;;;;;;;;;;20.49;45.43;99360.09;5034198;28;20057;-61
2022/08/11 00:20:03;;;;;;;1.45;0.80;;;;;;;20.46;44.96;99356.88;5045382;28;19921;-61
2022/08/11 00:22:49;;;;;;;1.02;0.70;;;;;;;20.41;44.74;99360.03;5047828;28;20044;-61
2022/08/11 00:25:44;;;;;;;1.90;0.90;;;;;;;20.37;45.60;99348.03;5034416;28;20044;-61
2022/08/11 00:28:32;;;;;;;1.05;0.80;;;;;;;20.33;45.79;99344.00;5032190;28;20041;-60
2022/08/11 00:31:20;;;;;;;2.08;1.05;;;;;;;20.38;45.03;99353.19;5032387;28;20423;-60
2022/08/11 00:34:11;;;;;;;1.15;0.80;;;;;;;20.41;45.05;99349.38;5039457;28;20068;-60
2022/08/11 00:37:15;;;;;;;1.33;0.95;;;;;;;20.38;45.39;99344.38;5034587;28;20136;-61
2022/08/11 00:40:06;;;;;;;1.42;0.90;;;;;;;20.33;44.46;99350.16;5034416;28;20053;-60
2022/08/11 00:43:15;;;;;;;2.58;1.10;;;;;;;20.34;45.22;99350.97;5031561;28;20037;-61
2022/08/11 00:46:24;;;;;;;1.40;0.82;;;;;;;20.21;45.49;99340.72;5031474;28;20037;-60
2022/08/11 00:49:29;;;;;;;1.52;0.93;;;;;;;20.17;45.57;99345.56;5030683;28;20044;-60
2022/08/11 00:52:38;;;;;;;1.27;0.68;;;;;;;20.12;45.90;99342.50;5031819;28;20045;-62
2022/08/11 00:55:47;;;;;;;1.23;0.90;;;;;;;20.09;45.84;99343.63;5040571;28;20044;-60
2022/08/11 00:58:45;;;;;;;3.17;0.90;;;;;;;20.04;47.44;99338.78;5034267;28;20061;-61
2022/08/11 01:01:35;;;;;;;1.80;0.90;;;;;;;20.01;46.18;99336.41;5031941;28;20066;-61
2022/08/11 01:04:44;;;;;;;1.85;0.90;;;;;;;19.94;47.09;99330.84;5033852;28;20693;-61
2022/08/11 01:07:57;;;;;;;1.73;0.90;;;;;;;19.92;46.82;99332.00;5044540;28;20034;-61
2022/08/11 01:11:17;;;;;;;1.65;1.10;;;;;;;19.89;46.57;99332.31;5031437;28;20064;-60
2022/08/11 01:14:40;;;;;;;1.40;0.88;;;;;;;19.93;47.32;99338.97;5071503;28;20061;-60
2022/08/11 01:17:25;;;;;;;1.10;0.68;;;;;;;19.96;46.75;99333.34;5035588;28;20067;-60
2022/08/11 01:20:47;;;;;;;1.45;0.95;;;;;;;19.98;46.79;99328.72;5031018;28;20096;-61
2022/08/11 01:23:44;;;;;;;1.45;0.80;;;;;;;19.86;47.13;99330.81;5031289;28;20396;-61
2022/08/11 01:26:29;;;;;;;1.42;0.88;;;;;;;19.79;46.37;99333.22;5030498;28;20033;-61
2022/08/11 01:29:36;;;;;;;2.63;1.13;;;;;;;19.81;47.61;99339.22;5030671;28;20057;-60
2022/08/11 01:32:51;;;;;;;2.03;1.00;;;;;;;19.85;48.15;99337.09;5031458;28;20041;-61
2022/08/11 01:36:03;;;;;;;3.47;1.20;;;;;;;19.68;49.15;99346.75;5031244;28;20055;-61
2022/08/11 01:39:19;;;;;;;1.73;1.00;;;;;;;19.45;48.77;99344.50;5030302;28;20125;-61
2022/08/11 01:45:59;;;;;;;1.27;0.95;;;;;;;19.45;48.72;99341.84;5049271;28;20034;-60
2022/08/11 01:49:11;;;;;;;1.75;0.95;;;;;;;19.40;47.72;99334.31;5031245;28;20044;-61
2022/08/11 01:52:19;;;;;;;1.88;1.10;;;;;;;19.33;49.46;99339.41;5031218;28;20508;-60
2022/08/11 01:55:25;;;;;;;1.75;1.10;;;;;;;19.37;49.55;99339.94;5037191;28;20068;-61
2022/08/11 01:58:29;;;;;;;1.83;1.02;;;;;;;19.30;50.08;99347.66;5041592;28;20071;-61
2022/08/11 02:01:33;;;;;;;1.42;0.90;;;;;;;19.35;49.42;99341.91;5031137;28;20098;-62
2022/08/11 02:04:23;;;;;;;2.83;1.20;;;;;;;19.44;47.61;99342.81;5031155;28;20437;-60
2022/08/11 02:07:30;;;;;;;1.52;1.10;;;;;;;19.38;49.08;99330.97;5063409;28;20068;-60
2022/08/11 02:13:44;;;;;;;1.38;0.90;;;;;;;19.29;48.69;99329.22;5031127;28;20461;-60
2022/08/11 02:16:54;;;;;;;2.40;1.20;;;;;;;19.31;49.32;99332.53;5034964;28;20044;-61
2022/08/11 02:26:18;;;;;;;1.25;0.82;;;;;;;19.22;50.14;99336.94;5046248;28;20061;-62
2022/08/11 02:29:16;;;;;;;2.38;1.17;;;;;;;19.05;49.64;99333.19;5033327;28;20048;-63
2022/08/11 02:35:48;;;;;;;2.03;0.90;;;;;;;18.66;52.82;99328.88;5047825;28;20037;-64
2022/08/11 02:38:52;;;;;;;2.22;1.00;;;;;;;18.47;53.12;99333.25;5034603;28;20091;-61
2022/08/11 02:45:11;;;;;;;1.92;1.00;;;;;;;18.52;52.63;99346.09;5058119;28;20065;-62
2022/08/11 02:51:31;;;;;;;1.25;0.70;;;;;;;18.82;50.89;99328.25;5049435;28;20040;-61
2022/08/11 02:54:50;;;;;;;1.60;1.10;;;;;;;18.86;50.26;99336.78;5039891;28;20049;-60
2022/08/11 02:57:40;;;;;;;1.23;0.82;;;;;;;18.90;49.91;99332.88;5060946;28;20033;-61
2022/08/11 03:00:25;;;;;;;1.58;1.00;;;;;;;18.77;50.88;99330.53;5034867;28;20072;-62
2022/08/11 03:03:24;;;;;;;2.25;0.98;;;;;;;18.65;52.31;99335.16;5034278;28;20048;-61
2022/08/11 03:06:25;;;;;;;2.85;1.00;;;;;;;18.50;52.77;99335.63;5034125;28;20044;-61
2022/08/11 03:09:26;;;;;;;1.58;0.80;;;;;;;18.53;51.70;99326.53;5046588;28;20049;-61
2022/08/11 03:18:59;;;;;;;1.25;0.80;;;;;;;18.51;52.60;99326.69;5033814;28;20057;-62
2022/08/11 03:22:03;;;;;;;1.55;0.98;;;;;;;18.61;51.74;99329.31;5035364;28;20500;-60
2022/08/11 03:24:57;;;;;;;1.98;0.98;;;;;;;18.67;51.38;99331.38;5042881;28;20045;-61
2022/08/11 03:28:07;;;;;;;2.10;0.90;;;;;;;18.70;50.84;99335.59;5032255;28;20388;-59
2022/08/11 03:31:13;;;;;;;2.33;1.20;;;;;;;18.61;52.62;99336.41;5032704;28;20049;-60
2022/08/11 03:34:27;;;;;;;1.25;0.90;;;;;;;18.57;51.98;99327.94;5033192;28;20048;-61
2022/08/11 03:37:50;;;;;;;1.40;0.90;;;;;;;18.58;51.40;99332.25;5033183;28;20049;-61
2022/08/11 03:44:21;;;;;;;2.00;1.15;;;;;;;18.31;52.26;99339.97;5039575;28;20080;-61
2022/08/11 03:47:41;;;;;;;1.25;0.90;;;;;;;18.40;51.33;99337.44;5019461;28;20096;-60
2022/08/11 03:50:47;;;;;;;1.58;0.82;;;;;;;18.39;52.04;99331.31;5049788;28;20488;-62
2022/08/11 03:54:08;;;;;;;1.90;1.00;;;;;;;18.51;51.22;99331.16;5032457;28;20068;-61
2022/08/11 03:57:41;;;;;;;1.60;0.90;;;;;;;18.71;51.88;99332.78;5018961;28;20045;-62
2022/08/11 04:00:54;;;;;;;1.27;0.77;;;;;;;18.71;51.35;99329.28;5025308;28;20049;-60
2022/08/11 04:03:58;;;;;;;2.53;0.98;;;;;;;18.63;52.06;99326.50;5015073;28;20049;-61
2022/08/11 04:07:15;;;;;;;2.15;1.00;;;;;;;18.64;50.58;99333.50;5030373;28;20072;-60
2022/08/11 04:10:17;;;;;;;2.95;0.98;;;;;;;18.72;50.67;99338.91;5030436;28;20040;-61
2022/08/11 04:13:05;;;;;;;1.52;0.75;;;;;;;18.83;49.90;99336.06;5042485;28;20118;-61
2022/08/11 04:16:04;;;;;;;1.27;0.80;;;;;;;18.98;49.20;99332.94;5030557;28;20429;-61
2022/08/11 04:19:16;;;;;;;2.63;1.10;;;;;;;19.10;49.56;99333.63;5030106;28;20135;-61
2022/08/11 04:22:38;;;;;;;1.20;0.85;;;;;;;19.05;49.43;99335.84;5029905;28;20045;-61
2022/08/11 04:25:48;;;;;;;1.65;0.77;;;;;;;18.97;50.89;99325.97;5041986;28;20049;-61
2022/08/11 04:29:32;;;;;;;1.30;0.80;;;;;;;19.12;51.11;99331.69;5030581;28;20388;-62
2022/08/11 04:32:20;;;;;;;1.13;0.80;;;;;;;19.27;50.22;99331.19;5016885;28;20060;-62
2022/08/11 04:35:32;;;;;;;1.70;1.00;;;;;;;19.41;50.26;99336.00;5042766;28;20056;-61
2022/08/11 04:38:23;;;;;;;1.90;0.90;;;;;;;19.43;50.11;99339.34;5032276;28;20045;-61
2022/08/11 04:43:19;;;;;;;1.42;0.75;;;;;;;19.41;50.33;99332.50;5032272;28;20515;-60
2022/08/11 04:45:01;;;;;;;;;;;;;;;19.44;51.37;99332.19;5042145;28;20711;-61
2022/08/11 05:02:07;;;;;;;2.33;0.95;;;;;;;19.86;49.51;99343.25;5033872;28;20034;-60
2022/08/11 05:08:35;;;;;;;1.35;0.77;;;;;;;20.12;49.41;99342.50;5031486;28;20389;-60
2022/08/11 05:11:38;;;;;;;2.50;1.10;;;;;;;20.27;49.26;99342.81;5031275;28;20057;-60
2022/08/11 05:37:06;;;;;;;2.70;1.20;;;;;;;20.71;49.90;99352.56;5031177;28;20101;-60
2022/08/11 05:58:41;;;;;;;3.80;2.00;;;;;;;20.37;51.42;99356.00;5038074;28;20476;-61
2022/08/11 06:01:32;;;;;;;1.77;1.00;;;;;;;20.21;51.69;99356.69;5040038;28;20048;-62
2022/08/11 06:04:22;;;;;;;2.22;1.77;;;;;;;20.03;52.30;99353.06;5035485;28;20045;-61
2022/08/11 06:07:16;;;;;;;4.30;1.45;;;;;;;20.04;52.51;99353.91;5035293;28;20069;-61
2022/08/11 06:10:44;;;;;;;2.50;1.40;;;;;;;20.19;51.92;99351.53;5051242;28;20032;-60
2022/08/11 06:13:34;;;;;;;3.58;1.88;;;;;;;20.25;52.41;99358.91;5032496;28;20065;-60
2022/08/11 06:16:27;;;;;;;2.58;1.75;;;;;;;20.21;52.82;99362.00;5015566;28;20420;-60
2022/08/11 06:19:13;;;;;;;3.95;1.80;;;;;;;20.30;52.60;99358.44;5018690;28;20052;-62
2022/08/11 06:22:00;;;;;;;3.53;1.33;;;;;;;20.65;51.31;99359.34;5032602;28;20072;-61
2022/08/11 06:24:52;;;;;;;5.68;2.10;;;;;;;20.87;51.87;99364.31;5027450;28;20435;-61
2022/08/11 06:27:39;;;;;;;3.47;2.10;;;;;;;20.65;51.74;99359.34;5031444;28;20460;-62
2022/08/11 06:30:40;;;;;;;6.53;2.40;;;;;;;20.99;51.35;99359.59;5015934;28;20091;-61
2022/08/11 06:33:32;;;;;;;5.20;2.17;;;;;;;21.01;51.43;99360.25;5037897;28;20044;-60
2022/08/11 06:36:54;;;;;;;4.55;2.17;;;;;;;21.33;50.24;99366.69;4988269;28;20510;-61
2022/08/11 06:39:49;;;;;;;4.50;2.13;;;;;;;21.95;48.50;99361.22;5032300;28;20053;-60
2022/08/11 06:42:38;;;;;;;5.22;2.10;;;;;;;22.37;48.19;99362.91;5018146;28;20041;-61
2022/08/11 06:45:26;;;;;;;4.13;1.90;;;;;;;22.43;47.26;99356.03;5034195;28;20100;-60
2022/08/11 06:48:18;;;;;;;9.32;2.10;;;;;;;22.54;47.09;99360.19;5034711;28;20068;-61
2022/08/11 06:51:13;;;;;;;3.45;2.15;;;;;;;22.73;47.00;99350.19;5034134;28;20041;-61
2022/08/11 06:54:01;;;;;;;2.40;1.52;;;;;;;23.09;45.84;99357.78;5034028;28;20045;-62
2022/08/11 07:03:12;;;;;;;6.75;1.92;;;;;;;24.01;43.95;99353.78;5033984;28;20048;-61
2022/08/11 07:06:21;;;;;;;4.32;1.63;;;;;;;23.84;44.59;99351.22;5033704;28;20042;-62
2022/08/11 07:16:07;;;;;;;5.03;1.73;;;;;;;23.81;45.39;99347.03;5047304;28;20048;-61
2022/08/11 07:31:42;;;;;;;2.50;1.63;;;;;;;24.60;42.83;99338.88;5013007;28;20428;-61
2022/08/11 07:34:34;;;;;;;5.07;1.80;;;;;;;24.89;42.58;99337.22;5035394;28;20095;-61
2022/08/11 07:37:21;;;;;;;6.00;1.63;;;;;;;25.13;41.38;99339.81;5046160;28;20068;-62
2022/08/11 07:40:07;;;;;;;3.15;1.52;;;;;;;25.28;41.88;99340.63;5033391;28;20534;-60
2022/08/11 07:42:54;;;;;;;3.80;1.70;;;;;;;25.58;41.13;99342.38;5033030;28;20053;-61
2022/08/11 07:55:00;;;;;;;2.70;1.77;;;;;;;26.03;39.87;99341.41;5033302;28;20038;-61
2022/08/11 08:19:27;;;;;;;2.35;1.35;;;;;;;27.76;35.73;99315.91;5045439;28;20064;-62
2022/08/11 08:22:16;;;;;;;2.60;1.15;;;;;;;27.86;35.65;99320.88;5044587;28;20116;-62
2022/08/11 08:25:02;;;;;;;1.70;1.02;;;;;;;27.96;34.88;99307.03;5043101;28;20040;-61
2022/08/11 08:27:49;;;;;;;6.60;1.10;;;;;;;28.03;35.28;99315.91;5032599;28;20045;-61
2022/08/11 08:30:49;;;;;;;1.48;1.05;;;;;;;28.14;34.68;99312.59;5032028;28;20037;-62
2022/08/11 08:33:35;;;;;;;1.85;0.98;;;;;;;27.81;34.11;99312.59;5042935;28;20044;-62
2022/08/11 08:36:22;;;;;;;2.17;1.20;;;;;;;27.21;35.95;99311.41;5037195;28;20056;-62
2022/08/11 08:39:07;;;;;;;2.60;1.05;;;;;;;26.95;35.57;99305.69;5034286;28;20033;-62
2022/08/11 08:41:55;;;;;;;0.98;0.77;;;;;;;27.85;35.00;99303.91;5017569;28;20499;-61
2022/08/11 08:44:43;;;;;;;1.92;1.27;;;;;;;28.10;34.62;99297.91;5030817;28;20090;-61
2022/08/11 08:47:29;;;;;;;1.38;0.85;;;;;;;28.44;33.71;99305.97;5031911;28;20052;-61
2022/08/11 08:50:20;;;;;;;2.78;1.00;;;;;;;29.06;33.32;99295.84;5033263;28;20072;-61
2022/08/11 08:53:07;;;;;;;1.42;0.75;;;;;;;29.67;31.60;99300.94;5030927;28;20045;-61
2022/08/11 08:55:55;;;;;;;2.00;1.00;;;;;;;29.47;31.55;99301.84;5039852;28;20068;-61
2022/08/11 08:58:44;;;;;;;1.80;1.00;;;;;;;29.23;32.20;99302.38;5019080;28;20054;-62
2022/08/11 09:01:35;;;;;;;1.63;0.82;;;;;;;29.61;31.26;99298.06;5031693;28;20057;-62
2022/08/11 09:04:20;;;;;;;4.00;0.75;;;;;;;29.63;30.91;99293.28;5031779;28;20041;-62
2022/08/11 09:07:11;;;;;;;2.33;0.90;;;;;;;29.71;31.02;99291.34;5035318;28;20069;-62
2022/08/11 09:09:58;;;;;;;2.53;0.95;;;;;;;30.20;30.25;99286.19;5028100;28;20550;-61
2022/08/11 09:12:43;;;;;;;1.33;0.80;;;;;;;30.60;30.15;99276.00;5031691;28;20126;-62
2022/08/11 09:15:29;;;;;;;1.48;0.80;;;;;;;30.40;29.69;99273.53;5031812;28;20037;-62
2022/08/11 09:18:16;;;;;;;1.80;0.60;;;;;;;30.11;29.69;99282.91;5030158;28;20091;-63
2022/08/11 09:21:02;;;;;;;1.30;0.50;;;;;;;28.50;31.69;99283.56;5034755;28;20487;-62
2022/08/11 09:27:01;;;;;;;1.52;0.80;;;;;;;28.40;33.01;99272.41;5039024;28;20074;-62
2022/08/11 09:29:46;;;;;;;2.83;0.80;;;;;;;27.67;34.08;99277.56;5039193;28;20068;-61
2022/08/11 09:32:33;;;;;;;1.77;0.93;;;;;;;27.22;35.18;99270.88;5031468;28;20040;-62
2022/08/11 09:35:18;;;;;;;2.13;0.70;;;;;;;26.86;35.12;99271.97;5044314;28;20048;-62
2022/08/11 09:41:09;;;;;;;1.50;0.80;;;;;;;26.80;35.06;99266.34;5030406;28;20041;-61
2022/08/11 09:46:59;;;;;;;1.45;0.82;;;;;;;27.12;34.80;99265.88;5033662;28;20152;-63
2022/08/11 09:49:47;;;;;;;2.58;0.80;;;;;;;26.99;34.27;99272.00;5043414;28;20045;-62
2022/08/11 09:52:37;;;;;;;1.15;0.65;;;;;;;26.72;34.33;99265.69;5037332;28;20365;-61
2022/08/11 09:55:22;;;;;;;2.33;0.80;;;;;;;26.63;34.61;99265.03;5031338;28;20057;-61
2022/08/11 09:58:13;;;;;;;2.38;0.75;;;;;;;26.72;34.01;99265.69;5031511;28;20436;-62
2022/08/11 10:01:00;;;;;;;2.28;0.90;;;;;;;26.70;33.45;99265.91;5030283;28;20690;-62
2022/08/11 10:03:46;;;;;;;2.22;0.90;;;;;;;26.54;33.30;99261.66;5030208;28;20050;-62
2022/08/11 10:09:45;;;;;;;1.05;0.70;;;;;;;27.30;33.33;99256.41;5043827;28;20049;-62
2022/08/11 10:12:36;;;;;;;2.72;0.77;;;;;;;29.59;29.94;99256.16;5031209;28;20508;-62
2022/08/11 10:15:33;;;;;;;2.55;0.80;;;;;;;28.83;30.11;99252.16;5031351;28;20037;-62
2022/08/11 10:18:41;;;;;;;1.08;0.68;;;;;;;27.94;32.13;99249.88;5031137;28;20115;-61
2022/08/11 10:21:35;;;;;;;2.40;0.82;;;;;;;28.87;31.00;99249.88;5037605;28;20067;-62
2022/08/11 10:27:23;;;;;;;1.80;0.98;;;;;;;28.19;31.95;99251.94;5031637;28;20444;-62
2022/08/11 10:36:18;;;;;;;1.90;0.95;;;;;;;28.19;31.96;99233.06;5030881;28;20037;-63
2022/08/11 10:39:05;;;;;;;1.33;0.60;;;;;;;28.10;32.12;99224.38;5043969;28;20107;-61
2022/08/11 10:45:00;;;;;;;1.80;0.73;;;;;;;27.90;31.91;99230.63;5044043;28;20465;-62
2022/08/11 10:47:45;;;;;;;1.77;0.88;;;;;;;29.41;29.38;99228.00;5033214;28;20049;-62
2022/08/11 10:59:46;;;;;;;4.10;1.48;;;;;;;29.15;29.25;99213.66;5035225;28;20045;-63
2022/08/11 11:02:31;;;;;;;1.83;1.05;;;;;;;29.58;29.15;99214.84;5034351;28;20393;-61
2022/08/11 11:05:29;;;;;;;2.13;0.90;;;;;;;30.34;27.96;99205.81;5062355;28;20038;-64
2022/08/11 11:17:54;;;;;;;1.38;0.70;;;;;;;31.95;25.04;99194.81;5033671;28;20045;-61
2022/08/11 11:17:56;;;;;;;4.00;0.60;;;;;;;33.35;24.55;99188.59;5033641;28;20112;-63
2022/08/11 11:21:03;;;;;;;1.73;0.75;;;;;;;33.47;24.95;99176.84;5037443;28;20052;-62
2022/08/11 11:24:12;;;;;;;2.63;0.88;;;;;;;33.76;24.92;99180.28;5042860;28;20057;-61
2022/08/11 11:27:24;;;;;;;1.55;0.80;;;;;;;32.90;24.98;99179.41;5032323;28;20132;-63
2022/08/11 11:30:13;;;;;;;3.28;0.80;;;;;;;32.29;25.80;99175.22;5032782;28;20469;-63
2022/08/11 11:33:15;;;;;;;0.90;0.60;;;;;;;31.74;25.70;99182.69;5033504;28;20060;-62
2022/08/11 11:36:25;;;;;;;1.02;0.63;;;;;;;31.40;26.77;99178.69;5033352;28;20069;-62
2022/08/11 11:39:10;;;;;;;2.42;0.77;;;;;;;30.94;27.01;99171.03;5033524;28;20088;-62
2022/08/11 11:41:59;;;;;;;1.65;0.90;;;;;;;30.65;27.44;99175.34;5033428;28;20033;-63
2022/08/11 11:44:45;;;;;;;1.05;0.60;;;;;;;30.34;28.55;99170.72;5033232;28;20103;-62
2022/08/11 11:47:31;;;;;;;1.25;0.60;;;;;;;30.39;28.16;99170.03;5033007;28;20160;-62
2022/08/11 11:50:18;;;;;;;2.45;0.63;;;;;;;30.77;27.93;99165.38;5032988;28;20044;-61
2022/08/11 11:53:05;;;;;;;1.85;0.75;;;;;;;30.84;27.06;99159.94;5059418;28;20044;-60
2022/08/11 11:55:51;;;;;;;1.70;0.47;;;;;;;30.73;27.22;99148.78;5033882;28;20130;-62
2022/08/11 12:01:43;;;;;;;1.45;0.98;;;;;;;32.48;24.27;99145.25;5033581;28;20063;-63
2022/08/11 12:04:29;;;;;;;4.72;0.70;;;;;;;32.53;25.20;99148.91;5060920;28;20052;-63
2022/08/11 12:10:19;;;;;;;1.30;0.70;;;;;;;33.69;22.96;99147.06;5024998;28;20039;-62
2022/08/11 12:16:11;;;;;;;3.97;0.90;;;;;;;32.15;23.83;99132.16;5059006;28;20116;-62
2022/08/11 12:18:58;;;;;;;1.48;0.73;;;;;;;31.71;24.02;99141.47;5032901;28;20049;-62
2022/08/11 12:27:55;;;;;;;0.85;0.65;;;;;;;30.77;24.24;99134.81;5031530;28;20037;-63
2022/08/11 12:30:41;;;;;;;5.95;0.65;;;;;;;30.93;24.52;99125.28;5069909;28;20037;-60
2022/08/11 12:33:26;;;;;;;0.95;0.50;;;;;;;31.46;24.29;99112.81;5045186;28;20487;-63
2022/08/11 12:36:15;;;;;;;1.25;0.73;;;;;;;31.81;23.03;99115.72;5017707;28;20464;-63
2022/08/11 12:39:04;;;;;;;1.40;0.52;;;;;;;32.03;22.40;99115.94;5044254;28;20038;-63
2022/08/11 12:51:57;;;;;;;1.30;0.45;;;;;;;30.19;23.57;99110.84;5031282;28;20042;-61
2022/08/11 12:54:55;;;;;;;1.05;0.60;;;;;;;29.97;24.18;99101.31;5042154;28;20369;-62
2022/08/11 13:07:02;;;;;;;1.23;0.68;;;;;;;29.74;24.50;99092.03;5039158;28;20045;-62
2022/08/11 13:09:49;;;;;;;1.00;0.60;;;;;;;29.95;23.92;99089.91;5032923;28;20044;-61
2022/08/11 13:12:47;;;;;;;1.65;0.50;;;;;;;30.10;24.26;99089.53;5030493;28;20041;-61
2022/08/11 13:15:35;;;;;;;0.82;0.52;;;;;;;30.44;24.73;99089.13;5031552;28;20053;-61
2022/08/11 13:18:22;;;;;;;2.97;0.75;;;;;;;30.40;23.82;99085.25;5031809;28;20472;-62
2022/08/11 13:21:12;;;;;;;2.58;0.68;;;;;;;29.87;25.06;99077.53;5059157;28;20072;-62
2022/08/11 13:24:00;;;;;;;1.15;0.68;;;;;;;30.40;24.50;99079.84;5033881;28;20040;-62
2022/08/11 13:26:46;;;;;;;1.27;0.70;;;;;;;30.74;23.84;99073.94;5028457;28;20042;-61
2022/08/11 13:29:31;;;;;;;3.40;0.32;;;;;;;32.11;23.36;99073.28;5044222;28;20465;-62
2022/08/11 13:32:22;;;;;;;0.73;0.45;;;;;;;31.50;23.76;99072.53;5030096;28;20113;-62
2022/08/11 13:35:09;;;;;;;1.33;0.80;;;;;;;30.52;23.32;99073.66;5025826;28;20045;-62
2022/08/11 13:37:55;;;;;;;1.50;0.75;;;;;;;29.85;24.37;99074.25;5035759;28;20040;-62
2022/08/11 13:40:41;;;;;;;1.92;0.70;;;;;;;30.79;23.38;99066.00;5020348;28;20052;-60
2022/08/11 13:43:27;;;;;;;1.02;0.73;;;;;;;30.78;24.36;99052.69;5022460;28;20087;-62
2022/08/11 13:46:19;;;;;;;2.78;0.68;;;;;;;31.20;23.60;99059.94;5029991;28;20033;-62
2022/08/11 13:49:07;;;;;;;1.95;0.60;;;;;;;31.04;24.37;99058.75;5042727;28;20080;-62
2022/08/11 13:51:54;;;;;;;0.70;0.50;;;;;;;30.66;24.83;99056.19;5030921;28;20365;-62
2022/08/11 13:54:41;;;;;;;2.42;0.80;;;;;;;30.88;24.23;99058.38;5031344;28;20040;-61
2022/08/11 13:57:32;;;;;;;3.17;0.70;;;;;;;30.11;24.75;99056.06;5031376;28;20049;-61
2022/08/11 14:00:17;;;;;;;1.58;0.70;;;;;;;30.09;24.85;99055.50;5034235;28;20037;-62
2022/08/11 14:03:07;;;;;;;1.30;0.60;;;;;;;29.44;25.58;99052.25;5045356;28;20102;-62
2022/08/11 14:05:55;;;;;;;2.33;0.73;;;;;;;28.87;26.27;99055.81;5031105;28;20095;-61
2022/08/11 14:08:42;;;;;;;1.40;0.70;;;;;;;29.78;26.25;99042.97;5044574;28;20041;-62
2022/08/11 14:14:34;;;;;;;1.42;0.93;;;;;;;28.78;27.05;99048.00;5028035;28;20041;-62
2022/08/11 14:17:21;;;;;;;1.65;0.65;;;;;;;29.20;25.93;99038.56;5034458;28;20508;-62
2022/08/11 14:20:08;;;;;;;2.10;0.90;;;;;;;29.80;25.42;99036.34;5033883;28;20056;-62
2022/08/11 14:22:55;;;;;;;2.35;0.80;;;;;;;30.11;24.20;99039.06;5034381;28;20563;-61
2022/08/11 14:26:22;;;;;;;1.65;0.70;;;;;;;30.17;24.62;99034.63;5046680;28;20057;-62
2022/08/11 14:28:46;;;;;;;1.42;0.80;;;;;;;29.36;25.04;99023.66;5038814;28;20492;-60
2022/08/11 14:31:33;;;;;;;2.30;0.85;;;;;;;28.92;25.50;99028.22;5039804;28;20037;-61
2022/08/11 14:34:20;;;;;;;1.63;0.80;;;;;;;29.43;25.60;99033.59;5040750;28;20051;-62
2022/08/11 14:37:12;;;;;;;2.67;0.68;;;;;;;29.44;25.16;99035.22;5040914;28;20047;-61
2022/08/11 14:40:00;;;;;;;2.03;0.65;;;;;;;29.19;26.30;99031.53;5033552;28;20061;-61
2022/08/11 14:48:53;;;;;;;2.33;0.80;;;;;;;28.68;26.54;99036.06;5036094;28;20033;-61
2022/08/11 14:51:41;;;;;;;1.55;0.70;;;;;;;29.16;25.36;99033.84;5041098;28;20389;-61
2022/08/11 14:57:37;;;;;;;1.80;0.68;;;;;;;29.19;25.81;99034.22;5033919;28;20037;-61
2022/08/11 15:00:22;;;;;;;1.17;0.50;;;;;;;29.04;26.66;99034.56;5035007;28;20108;-61
2022/08/11 15:03:11;;;;;;;1.85;0.70;;;;;;;28.25;27.24;99041.84;5038737;28;20056;-62
2022/08/11 15:05:58;;;;;;;1.88;0.60;;;;;;;27.41;28.17;99029.94;5033533;28;20041;-61
2022/08/11 15:08:54;;;;;;;3.22;0.65;;;;;;;27.23;28.65;99027.88;5033806;28;20095;-61
2022/08/11 15:17:50;;;;;;;1.20;0.70;;;;;;;27.48;28.19;99026.38;5034281;28;20510;-62
2022/08/11 15:39:15;;;;;;;1.52;0.60;;;;;;;27.33;27.94;99015.88;5035129;28;20115;-62
2022/08/11 15:48:23;;;;;;;0.90;0.50;;;;;;;26.93;28.50;99009.44;5032965;28;20041;-61
2022/08/11 15:51:16;;;;;;;1.95;0.75;;;;;;;26.71;28.89;99004.28;5032102;28;20434;-62
2022/08/11 15:54:15;;;;;;;2.17;0.75;;;;;;;26.83;29.33;98999.16;5032373;28;20124;-61
2022/08/11 15:57:01;;;;;;;1.20;0.75;;;;;;;27.03;29.22;98996.47;5032863;28;20140;-61
2022/08/11 16:06:02;;;;;;;1.67;0.70;;;;;;;26.67;29.34;98997.66;5053982;28;20034;-60
2022/08/11 16:08:49;;;;;;;2.00;0.70;;;;;;;26.59;29.18;98989.84;5059271;28;20042;-61
2022/08/11 16:11:33;;;;;;;1.52;0.73;;;;;;;26.36;29.68;98996.41;5041752;28;20032;-61
2022/08/11 16:17:29;;;;;;;2.42;0.60;;;;;;;26.14;29.54;98999.19;5037004;28;20055;-61
2022/08/11 16:20:19;;;;;;;0.93;0.63;;;;;;;26.15;29.66;98995.47;5033973;28;20484;-61
2022/08/11 16:23:06;;;;;;;2.05;0.60;;;;;;;26.17;29.48;98994.25;5032453;28;20045;-61
2022/08/11 16:25:53;;;;;;;1.15;0.40;;;;;;;26.01;30.14;98992.78;5039379;28;20493;-62
2022/08/11 16:28:43;;;;;;;5.20;0.90;;;;;;;26.10;29.80;98988.03;5036044;28;20041;-61
2022/08/11 16:31:29;;;;;;;1.48;0.80;;;;;;;25.90;29.75;98996.84;5063443;28;20044;-62
2022/08/11 16:38:34;;;;;;;1.20;0.68;;;;;;;25.98;30.06;98995.03;5044971;28;20052;-61
2022/08/11 16:40:25;;;;;;;1.40;0.50;;;;;;;26.25;29.69;98992.41;5031732;28;20174;-61
2022/08/11 16:49:45;;;;;;;2.25;0.80;;;;;;;26.59;29.70;98984.47;5038760;28;20091;-61
2022/08/11 16:52:30;;;;;;;0.85;0.50;;;;;;;26.46;29.65;98982.59;5058031;28;20089;-62
2022/08/11 16:55:22;;;;;;;1.48;0.65;;;;;;;26.39;29.78;98987.94;5059301;28;20041;-62
2022/08/11 17:01:13;;;;;;;2.10;0.93;;;;;;;26.16;29.68;98986.41;5061898;28;20083;-61
2022/08/11 17:13:48;;;;;;;2.20;0.80;;;;;;;25.73;29.88;98979.44;5066500;28;20395;-61
2022/08/11 17:16:40;;;;;;;1.77;1.13;;;;;;;25.62;30.33;98983.50;5038902;28;20397;-61
2022/08/11 17:19:30;;;;;;;1.45;0.70;;;;;;;25.36;30.54;98982.31;5058380;28;20429;-61
2022/08/11 17:25:27;;;;;;;1.95;0.70;;;;;;;25.62;30.83;98976.31;5042248;28;20369;-62
2022/08/11 17:28:14;;;;;;;1.10;0.55;;;;;;;25.40;31.10;98975.53;5031412;28;20499;-62
2022/08/11 17:37:15;;;;;;;1.95;0.80;;;;;;;24.76;31.84;98978.16;5077080;28;20045;-62
2022/08/11 17:40:04;;;;;;;2.63;0.90;;;;;;;24.69;31.98;98975.44;5032043;28;20112;-61
2022/08/11 17:48:52;;;;;;;2.33;0.50;;;;;;;24.34;32.90;98992.19;5030946;28;20065;-61
2022/08/11 18:01:06;;;;;;;2.58;0.50;;;;;;;24.32;33.68;98992.38;5057650;28;20131;-62
2022/08/11 18:04:18;;;;;;;1.23;0.52;;;;;;;24.27;33.73;98988.63;5034131;28;20116;-62
2022/08/11 18:07:03;;;;;;;2.55;0.68;;;;;;;24.27;33.60;98996.66;5035581;28;20064;-62
